Time;durP1;ratioP1;P1;durP2;ratioP2;P2;SDS_P1;SDS_P2;PMS_P1;PMS_P2;Temp;Humidity;BMP_temperature;BMP_pressure;BME280_temperature;BME280_humidity;BME280_pressure;Samples;Min_cycle;Max_cycle;Signal;HPM_P1;HPM_P2
2022/04/29 00:06:00;;;;;;;;;;;;;;;;;;;;;
2022/04/29 00:27:27;;;;;;;;;;;10.00;83.70;;;;;;5981839;24;19910;-88
2022/04/29 00:30:25;;;;;;;;;;;;;;;;;;;;;
2022/04/29 00:33:29;;;;;;;;;;;;;;;;;;;;;
2022/04/29 00:39:24;;;;;;;;;;;;;;;;;;;;;
2022/04/29 00:42:37;;;;;;;;;;;;;;;;;;;;;
2022/04/29 00:48:21;;;;;;;;;;;9.90;84.50;;;;;;6210244;23;20318;-86
2022/04/29 00:51:18;;;;;;;;;;;9.80;84.30;;;;;;6225120;23;19915;-86
2022/04/29 00:57:19;;;;;;;;;;;;;;;;;;;;;
2022/04/29 00:59:59;;;;;;;;;;;9.80;84.20;;;;;;6176314;23;19912;-87
2022/04/29 01:02:51;;;;;;;;;;;;;;;;;;;;;
2022/04/29 01:08:19;;;;;;;;;;;9.70;84.90;;;;;;6154443;23;19967;-87
2022/04/29 01:11:00;;;;;;;;;;;;;;;;;;;;;
2022/04/29 01:16:41;;;;;;;;;;;9.60;84.90;;;;;;6199344;23;19908;-86
2022/04/29 01:19:12;;;;;;;;;;;9.60;84.90;;;;;;6220653;23;19912;-86
2022/04/29 01:21:55;;;;;;;;;;;;;;;;;;;;;
2022/04/29 01:24:42;;;;;;;;;;;;;;;;;;;;;
2022/04/29 01:30:28;;;;;;;;;;;9.60;85.40;;;;;;6230902;23;19911;-86
2022/04/29 01:33:14;;;;;;;;;;;;;;;;;;;;;
2022/04/29 01:35:52;;;;;;;;;;;9.50;85.20;;;;;;6246877;23;19970;-87
2022/04/29 01:38:45;;;;;;;;;;;;;;;;;;;;;
2022/04/29 01:41:14;;;;;;;;;;;9.40;85.90;;;;;;6247783;23;19999;-88
2022/04/29 01:43:42;;;;;;;;;;;9.40;85.80;;;;;;6227852;23;20329;-88
2022/04/29 01:46:10;;;;;;;;;;;9.40;85.70;;;;;;6224512;23;19903;-88
2022/04/29 01:48:38;;;;;;;;;;;9.40;85.70;;;;;;6223714;23;19903;-87
2022/04/29 01:51:06;;;;;;;;;;;9.40;85.90;;;;;;6223212;23;19958;-87
2022/04/29 01:53:42;;;;;;;;;;;9.30;86.20;;;;;;6223382;23;20314;-88
2022/04/29 01:56:07;;;;;;;;;;;9.30;86.20;;;;;;6222991;23;19970;-88
2022/04/29 01:58:33;;;;;;;;;;;9.30;86.50;;;;;;6222704;23;20329;-88
2022/04/29 02:00:58;;;;;;;;;;;9.20;86.60;;;;;;6222847;23;19911;-88
2022/04/29 02:03:24;;;;;;;;;;;9.20;86.50;;;;;;6223721;23;19943;-88
2022/04/29 02:05:52;;;;;;;;;;;9.20;86.40;;;;;;6249360;23;19904;-90
2022/04/29 02:08:23;;;;;;;;;;;9.20;86.50;;;;;;6222743;23;19908;-88
2022/04/29 02:10:50;;;;;;;;;;;9.20;86.50;;;;;;6222645;23;19915;-89
2022/04/29 02:13:18;;;;;;;;;;;9.20;86.60;;;;;;6222939;23;19904;-89
2022/04/29 02:15:45;;;;;;;;;;;9.20;86.50;;;;;;6223193;23;19916;-89
2022/04/29 02:18:11;;;;;;;;;;;9.10;87.10;;;;;;6222767;23;19943;-89
2022/04/29 02:20:39;;;;;;;;;;;9.10;86.80;;;;;;6222977;23;19954;-87
2022/04/29 02:23:04;;;;;;;;;;;9.10;87.00;;;;;;6222335;23;19916;-88
2022/04/29 02:25:30;;;;;;;;;;;9.10;87.50;;;;;;6223326;23;19904;-87
2022/04/29 02:27:55;;;;;;;;;;;9.10;87.30;;;;;;6243298;22;19937;-87
2022/04/29 02:30:21;;;;;;;;;;;9.10;87.10;;;;;;6248652;23;19892;-90
2022/04/29 02:32:49;;;;;;;;;;;9.00;87.00;;;;;;6249040;22;19956;-87
2022/04/29 02:35:18;;;;;;;;;;;9.10;87.10;;;;;;6248689;22;19899;-88
2022/04/29 02:37:43;;;;;;;;;;;9.00;86.90;;;;;;6233547;23;19923;-88
2022/04/29 02:40:09;;;;;;;;;;;9.00;87.30;;;;;;6222623;23;19908;-87
2022/04/29 02:42:35;;;;;;;;;;;9.00;87.20;;;;;;6222606;23;20222;-88
2022/04/29 02:45:01;;;;;;;;;;;9.00;87.50;;;;;;6221961;23;19910;-89
2022/04/29 02:47:41;;;;;;;;;;;8.90;87.70;;;;;;6221516;23;19998;-88
2022/04/29 02:50:07;;;;;;;;;;;8.90;87.80;;;;;;6248853;23;19904;-89
2022/04/29 02:52:33;;;;;;;;;;;8.80;88.20;;;;;;6221964;23;19911;-88
2022/04/29 02:54:58;;;;;;;;;;;8.80;88.40;;;;;;6222935;23;19910;-89
2022/04/29 02:57:24;;;;;;;;;;;8.80;88.50;;;;;;6222280;23;19907;-88
2022/04/29 02:59:50;;;;;;;;;;;8.80;88.40;;;;;;6222431;23;19915;-87
2022/04/29 03:02:15;;;;;;;;;;;8.80;88.20;;;;;;6255608;23;19903;-89
2022/04/29 03:04:41;;;;;;;;;;;8.90;88.20;;;;;;6229924;23;20329;-89
2022/04/29 03:07:07;;;;;;;;;;;8.90;88.40;;;;;;6231258;23;19930;-88
2022/04/29 03:09:32;;;;;;;;;;;8.80;89.00;;;;;;6234089;23;19935;-88
2022/04/29 03:11:58;;;;;;;;;;;8.80;89.00;;;;;;6235873;23;19958;-87
2022/04/29 03:14:23;;;;;;;;;;;8.70;89.00;;;;;;6234473;23;19907;-91
2022/04/29 03:16:49;;;;;;;;;;;8.80;88.80;;;;;;6230468;23;19911;-88
2022/04/29 03:19:15;;;;;;;;;;;8.70;89.20;;;;;;6224541;23;19908;-88
2022/04/29 03:21:41;;;;;;;;;;;8.70;89.00;;;;;;6223804;23;19904;-88
2022/04/29 03:24:08;;;;;;;;;;;8.80;89.00;;;;;;6198306;23;19923;-88
2022/04/29 03:26:35;;;;;;;;;;;8.70;89.10;;;;;;6223385;23;19914;-88
2022/04/29 03:29:07;;;;;;;;;;;8.70;89.30;;;;;;6223384;23;19904;-89
2022/04/29 03:31:32;;;;;;;;;;;8.70;89.40;;;;;;6223107;23;19903;-88
2022/04/29 03:34:00;;;;;;;;;;;8.70;89.60;;;;;;6223151;23;19943;-88
2022/04/29 03:36:28;;;;;;;;;;;8.60;89.50;;;;;;6223583;23;20057;-91
2022/04/29 03:38:54;;;;;;;;;;;8.60;89.80;;;;;;6223125;23;19912;-88
2022/04/29 03:41:25;;;;;;;;;;;8.60;89.80;;;;;;6223350;23;19904;-89
2022/04/29 03:43:53;;;;;;;;;;;8.60;90.00;;;;;;6223561;23;19910;-88
2022/04/29 03:46:19;;;;;;;;;;;8.60;89.90;;;;;;6198000;23;19957;-87
2022/04/29 03:51:51;;;;;;;;;;;8.60;89.70;;;;;;6250620;23;19926;-88
2022/04/29 03:54:17;;;;;;;;;;;8.60;90.10;;;;;;6250254;23;19911;-88
2022/04/29 03:56:44;;;;;;;;;;;8.60;90.00;;;;;;6223770;23;19908;-88
2022/04/29 03:59:12;;;;;;;;;;;8.60;90.00;;;;;;6232464;23;19908;-89
2022/04/29 04:01:37;;;;;;;;;;;8.60;89.90;;;;;;6276082;22;19899;-90
2022/04/29 04:04:05;;;;;;;;;;;8.70;89.80;;;;;;6249276;23;19908;-89
2022/04/29 04:06:51;;;;;;;;;;;8.70;89.80;;;;;;6240105;23;19915;-89
2022/04/29 04:09:18;;;;;;;;;;;8.60;89.80;;;;;;6228037;23;19903;-89
2022/04/29 04:11:43;;;;;;;;;;;8.60;90.00;;;;;;6223694;23;19914;-90
2022/04/29 04:14:11;;;;;;;;;;;8.60;89.90;;;;;;6223614;23;20281;-90
2022/04/29 04:16:40;;;;;;;;;;;8.60;90.10;;;;;;6251006;23;19914;-89
2022/04/29 04:19:05;;;;;;;;;;;8.60;90.00;;;;;;6252579;23;19907;-87
2022/04/29 04:21:34;;;;;;;;;;;8.60;90.10;;;;;;6229016;23;19919;-87
2022/04/29 04:24:02;;;;;;;;;;;8.60;90.20;;;;;;6226827;23;19920;-87
2022/04/29 04:26:28;;;;;;;;;;;8.60;90.20;;;;;;6252751;23;19914;-88
2022/04/29 04:28:56;;;;;;;;;;;8.60;90.20;;;;;;6227961;23;19908;-87
2022/04/29 04:31:21;;;;;;;;;;;8.60;90.20;;;;;;6238759;23;19911;-87
2022/04/29 04:33:58;;;;;;;;;;;8.60;90.30;;;;;;6214180;23;19927;-88
2022/04/29 04:36:23;;;;;;;;;;;8.60;90.30;;;;;;6237026;23;19933;-88
2022/04/29 04:38:55;;;;;;;;;;;8.50;90.50;;;;;;6241387;23;19907;-89
2022/04/29 04:41:25;;;;;;;;;;;8.50;90.70;;;;;;6224574;23;20390;-89
2022/04/29 04:43:54;;;;;;;;;;;8.60;90.70;;;;;;6223544;23;19934;-87
2022/04/29 04:46:25;;;;;;;;;;;8.50;90.50;;;;;;6198459;23;19908;-88
2022/04/29 04:48:50;;;;;;;;;;;8.60;90.70;;;;;;6223547;23;20006;-88
2022/04/29 04:51:26;;;;;;;;;;;;;;;;;;;;;
2022/04/29 04:53:52;;;;;;;;;;;8.60;90.70;;;;;;6267683;23;19904;-87
2022/04/29 04:56:18;;;;;;;;;;;8.50;90.70;;;;;;6237902;23;19907;-86
2022/04/29 04:58:43;;;;;;;;;;;8.60;90.70;;;;;;6233900;23;19935;-86
2022/04/29 05:01:11;;;;;;;;;;;8.60;90.80;;;;;;6230993;23;19903;-87
2022/04/29 05:03:53;;;;;;;;;;;8.60;90.80;;;;;;6222928;23;19927;-90
2022/04/29 05:06:27;;;;;;;;;;;8.60;90.80;;;;;;6202217;23;20219;-90
2022/04/29 05:08:55;;;;;;;;;;;8.50;90.80;;;;;;6224543;23;19918;-89
2022/04/29 05:11:26;;;;;;;;;;;8.60;90.80;;;;;;6199434;23;19911;-90
2022/04/29 05:13:54;;;;;;;;;;;8.60;90.80;;;;;;6223731;23;20324;-90
2022/04/29 05:16:23;;;;;;;;;;;8.60;90.80;;;;;;6249920;23;20318;-91
2022/04/29 05:18:48;;;;;;;;;;;8.60;90.80;;;;;;6224226;23;20207;-91
2022/04/29 05:21:14;;;;;;;;;;;8.70;90.80;;;;;;6223717;23;19915;-91
2022/04/29 05:23:40;;;;;;;;;;;8.70;90.90;;;;;;6224013;23;19916;-93
2022/04/29 05:26:05;;;;;;;;;;;8.70;90.90;;;;;;6223683;23;19907;-91
2022/04/29 05:28:37;;;;;;;;;;;8.70;90.80;;;;;;6223653;23;19907;-90
2022/04/29 05:31:07;;;;;;;;;;;8.70;91.00;;;;;;6198242;23;19908;-89
2022/04/29 05:33:37;;;;;;;;;;;8.60;90.90;;;;;;6243416;23;19892;-88
2022/04/29 05:36:04;;;;;;;;;;;8.60;91.00;;;;;;6249070;22;19892;-88
2022/04/29 05:42:14;;;;;;;;;;;8.70;91.00;;;;;;6248219;22;19892;-89
2022/04/29 05:44:07;;;;;;;;;;;8.70;90.90;;;;;;6251746;23;19954;-90
2022/04/29 05:46:35;;;;;;;;;;;8.70;91.00;;;;;;6199844;23;20302;-88
2022/04/29 05:49:01;;;;;;;;;;;8.70;91.00;;;;;;6223140;23;19911;-91
2022/04/29 05:51:29;;;;;;;;;;;8.70;90.90;;;;;;6223134;23;19982;-90
2022/04/29 05:54:02;;;;;;;;;;;8.70;91.00;;;;;;6222719;23;20306;-91
2022/04/29 05:56:28;;;;;;;;;;;8.70;91.10;;;;;;6222431;23;19908;-90
2022/04/29 05:58:54;;;;;;;;;;;8.80;91.10;;;;;;6222944;23;19911;-87
2022/04/29 06:01:19;;;;;;;;;;;8.80;91.10;;;;;;6222646;23;19979;-88
2022/04/29 06:03:45;;;;;;;;;;;8.80;91.20;;;;;;6222508;23;19904;-88
2022/04/29 06:06:13;;;;;;;;;;;8.70;91.20;;;;;;6222161;23;19911;-88
2022/04/29 06:08:38;;;;;;;;;;;8.80;91.20;;;;;;6222119;23;19907;-88
2022/04/29 06:11:04;;;;;;;;;;;8.80;91.10;;;;;;6222243;23;20338;-90
2022/04/29 06:13:30;;;;;;;;;;;8.80;91.20;;;;;;6221524;23;19942;-88
2022/04/29 06:15:56;;;;;;;;;;;8.80;91.10;;;;;;6222248;23;19918;-88
2022/04/29 06:18:27;;;;;;;;;;;8.80;91.20;;;;;;6222958;23;19911;-88
2022/04/29 06:20:55;;;;;;;;;;;8.80;91.30;;;;;;6222216;23;20337;-88
2022/04/29 06:23:20;;;;;;;;;;;8.80;91.30;;;;;;6222189;23;19931;-89
2022/04/29 06:25:57;;;;;;;;;;;8.90;91.30;;;;;;6222167;23;19919;-89
2022/04/29 06:28:23;;;;;;;;;;;8.90;91.30;;;;;;6222763;23;19907;-88
2022/04/29 06:37:26;;;;;;;;;;;8.90;91.50;;;;;;6098534;23;19916;-92
2022/04/29 06:45:54;;;;;;;;;;;9.00;91.50;;;;;;6224911;23;20318;-90
2022/04/29 06:48:23;;;;;;;;;;;9.00;91.50;;;;;;6224322;23;19904;-92
2022/04/29 06:50:56;;;;;;;;;;;9.00;91.50;;;;;;6224085;23;19962;-91
2022/04/29 06:53:34;;;;;;;;;;;9.20;91.50;;;;;;6251434;23;19948;-91
2022/04/29 06:56:05;;;;;;;;;;;9.20;91.40;;;;;;6197958;23;19908;-92
2022/04/29 06:58:59;;;;;;;;;;;9.20;91.30;;;;;;6200412;23;20242;-93
2022/04/29 07:01:24;;;;;;;;;;;9.20;91.40;;;;;;6228205;23;19911;-91
2022/04/29 07:03:50;;;;;;;;;;;9.20;91.50;;;;;;6225491;23;20229;-91
2022/04/29 07:06:15;;;;;;;;;;;9.30;91.50;;;;;;6238457;22;19892;-90
2022/04/29 07:08:43;;;;;;;;;;;9.30;91.40;;;;;;6250604;22;19912;-90
2022/04/29 07:11:09;;;;;;;;;;;9.40;91.40;;;;;;6250545;22;19915;-90
2022/04/29 07:13:37;;;;;;;;;;;9.40;91.30;;;;;;6250411;23;19892;-91
2022/04/29 07:16:06;;;;;;;;;;;9.50;91.30;;;;;;6234181;23;19907;-92
2022/04/29 07:18:35;;;;;;;;;;;9.50;91.30;;;;;;6223607;23;19962;-92
2022/04/29 07:21:07;;;;;;;;;;;9.50;91.30;;;;;;6223998;23;19922;-93
2022/04/29 07:23:32;;;;;;;;;;;9.60;91.30;;;;;;6251657;22;19983;-89
2022/04/29 07:26:06;;;;;;;;;;;9.60;91.20;;;;;;6224259;23;19903;-93
2022/04/29 07:28:37;;;;;;;;;;;9.60;91.20;;;;;;6223509;23;19903;-88
2022/04/29 07:31:05;;;;;;;;;;;9.60;91.20;;;;;;6224455;23;19919;-90
2022/04/29 07:33:34;;;;;;;;;;;9.60;91.30;;;;;;6251897;23;19904;-93
2022/04/29 07:41:45;;;;;;;;;;;9.90;91.20;;;;;;6251055;23;19942;-92
2022/04/29 07:44:14;;;;;;;;;;;10.00;91.20;;;;;;6224718;23;19904;-90
2022/04/29 07:46:43;;;;;;;;;;;10.00;91.10;;;;;;6224197;23;19939;-91
2022/04/29 07:49:11;;;;;;;;;;;10.10;91.10;;;;;;6224021;23;20422;-91
2022/04/29 07:51:37;;;;;;;;;;;10.10;91.00;;;;;;6224004;23;19904;-92
2022/04/29 07:54:04;;;;;;;;;;;10.20;90.90;;;;;;6223957;23;19904;-91
2022/04/29 07:56:30;;;;;;;;;;;10.30;90.90;;;;;;6250216;23;19952;-91
2022/04/29 07:58:57;;;;;;;;;;;10.40;90.90;;;;;;6251370;23;19914;-92
2022/04/29 08:01:36;;;;;;;;;;;10.40;90.80;;;;;;6225694;23;19903;-93
2022/04/29 08:04:02;;;;;;;;;;;10.50;90.80;;;;;;6225375;23;19904;-93
2022/04/29 08:06:31;;;;;;;;;;;10.60;90.70;;;;;;6228910;23;19910;-92
2022/04/29 08:09:09;;;;;;;;;;;10.60;90.60;;;;;;6241150;23;19903;-91
2022/04/29 08:11:37;;;;;;;;;;;10.70;90.60;;;;;;6238632;23;19911;-88
2022/04/29 08:14:06;;;;;;;;;;;10.80;90.60;;;;;;6211288;23;19989;-92
2022/04/29 08:16:32;;;;;;;;;;;10.90;90.50;;;;;;6234135;23;19935;-91
2022/04/29 08:19:04;;;;;;;;;;;11.00;90.40;;;;;;6225941;23;19907;-92
2022/04/29 08:21:30;;;;;;;;;;;11.10;90.40;;;;;;6224541;23;19904;-89
2022/04/29 08:24:06;;;;;;;;;;;11.20;90.30;;;;;;6223861;23;20042;-88
2022/04/29 08:26:40;;;;;;;;;;;11.30;90.20;;;;;;6201912;23;19912;-91
2022/04/29 08:29:05;;;;;;;;;;;11.30;90.00;;;;;;6225300;23;19911;-88
2022/04/29 08:31:40;;;;;;;;;;;11.40;89.80;;;;;;6223806;23;19903;-90
2022/04/29 08:34:09;;;;;;;;;;;11.40;89.60;;;;;;6200550;23;19961;-91
2022/04/29 08:36:37;;;;;;;;;;;11.40;89.10;;;;;;6200211;23;19916;-90
2022/04/29 08:39:11;;;;;;;;;;;11.50;88.70;;;;;;6201681;23;19911;-91
2022/04/29 08:41:41;;;;;;;;;;;11.50;88.30;;;;;;6261501;23;19903;-90
2022/04/29 08:44:12;;;;;;;;;;;11.50;88.00;;;;;;6272009;23;19903;-90
2022/04/29 08:46:46;;;;;;;;;;;11.40;87.90;;;;;;6246092;23;19904;-90
2022/04/29 08:49:22;;;;;;;;;;;11.40;88.10;;;;;;6247800;23;19915;-90
2022/04/29 08:52:03;;;;;;;;;;;;;;;;;;;;;
2022/04/29 08:59:58;;;;;;;;;;;11.70;87.50;;;;;;6250069;23;19915;-91
2022/04/29 09:02:26;;;;;;;;;;;11.80;87.50;;;;;;6223324;23;19907;-90
2022/04/29 09:04:55;;;;;;;;;;;11.80;87.00;;;;;;6222897;23;19961;-90
2022/04/29 09:07:44;;;;;;;;;;;11.90;86.60;;;;;;6223109;23;19903;-89
2022/04/29 09:10:10;;;;;;;;;;;11.90;86.40;;;;;;6192891;23;20369;-90
2022/04/29 09:12:35;;;;;;;;;;;12.00;86.40;;;;;;6222733;23;19954;-90
2022/04/29 09:15:11;;;;;;;;;;;12.10;85.80;;;;;;6222542;23;20314;-89
2022/04/29 09:17:39;;;;;;;;;;;12.10;84.50;;;;;;6223266;23;19908;-90
2022/04/29 09:20:17;;;;;;;;;;;12.10;83.60;;;;;;6222979;23;20226;-88
2022/04/29 09:22:46;;;;;;;;;;;12.00;83.30;;;;;;6198216;23;19908;-89
2022/04/29 09:25:12;;;;;;;;;;;12.10;83.40;;;;;;6222022;23;19969;-91
2022/04/29 09:28:10;;;;;;;;;;;12.20;83.80;;;;;;6222724;23;19908;-90
2022/04/29 09:30:39;;;;;;;;;;;12.30;83.20;;;;;;6141025;23;20402;-90
2022/04/29 09:33:25;;;;;;;;;;;12.40;83.10;;;;;;6222836;23;19904;-90
2022/04/29 09:35:55;;;;;;;;;;;12.50;83.40;;;;;;6196204;23;20314;-89
2022/04/29 09:41:22;;;;;;;;;;;12.70;83.10;;;;;;6249661;23;19979;-91
2022/04/29 09:43:48;;;;;;;;;;;12.70;82.90;;;;;;6223025;23;19904;-90
2022/04/29 09:49:10;;;;;;;;;;;12.90;83.00;;;;;;6229393;23;19911;-90
2022/04/29 09:52:11;;;;;;;;;;;13.00;82.80;;;;;;6218812;23;19930;-90
2022/04/29 09:54:39;;;;;;;;;;;13.00;82.40;;;;;;6144492;23;19903;-90
2022/04/29 09:57:20;;;;;;;;;;;13.10;82.30;;;;;;6225165;23;19907;-91
2022/04/29 09:59:59;;;;;;;;;;;;;;;;;;;;;
2022/04/29 10:02:30;;;;;;;;;;;13.20;82.40;;;;;;6252601;23;19927;-92
2022/04/29 10:04:58;;;;;;;;;;;13.30;83.10;;;;;;6225295;23;19999;-90
2022/04/29 10:07:30;;;;;;;;;;;13.30;82.30;;;;;;6227244;23;19931;-90
2022/04/29 10:10:01;;;;;;;;;;;13.40;81.70;;;;;;6205351;23;19907;-91
2022/04/29 10:12:32;;;;;;;;;;;13.40;81.50;;;;;;6226336;23;19912;-89
2022/04/29 10:15:23;;;;;;;;;;;13.50;81.50;;;;;;6229475;23;19904;-90
2022/04/29 10:23:36;;;;;;;;;;;13.50;81.20;;;;;;6273430;22;19894;-90
2022/04/29 10:26:05;;;;;;;;;;;13.50;81.60;;;;;;6246200;23;19921;-90
2022/04/29 10:28:41;;;;;;;;;;;13.50;81.60;;;;;;6275649;22;19908;-89
2022/04/29 10:31:09;;;;;;;;;;;13.50;81.60;;;;;;6248323;23;19956;-89
2022/04/29 10:33:38;;;;;;;;;;;13.60;81.60;;;;;;6238051;23;19946;-90
2022/04/29 10:36:07;;;;;;;;;;;13.60;81.30;;;;;;6225735;23;19910;-89
2022/04/29 10:38:42;;;;;;;;;;;13.60;81.20;;;;;;6226440;23;19957;-89
2022/04/29 10:41:21;;;;;;;;;;;13.70;81.10;;;;;;6226117;23;19926;-90
2022/04/29 10:43:49;;;;;;;;;;;13.70;81.10;;;;;;6225211;23;19931;-88
2022/04/29 10:46:20;;;;;;;;;;;13.80;80.90;;;;;;6225656;23;20397;-90
2022/04/29 10:48:48;;;;;;;;;;;13.80;80.70;;;;;;6225992;23;19903;-89
2022/04/29 10:51:17;;;;;;;;;;;13.80;80.50;;;;;;6225706;23;19914;-90
2022/04/29 10:53:44;;;;;;;;;;;13.80;80.50;;;;;;6224767;23;19911;-89
2022/04/29 10:56:37;;;;;;;;;;;13.80;80.20;;;;;;6225733;23;19910;-91
2022/04/29 10:59:20;;;;;;;;;;;13.80;79.80;;;;;;6226201;23;19908;-89
2022/04/29 11:02:13;;;;;;;;;;;13.80;80.10;;;;;;6253053;23;19903;-90
2022/04/29 11:04:43;;;;;;;;;;;13.90;79.90;;;;;;6227321;23;19934;-90
2022/04/29 11:07:38;;;;;;;;;;;14.00;80.10;;;;;;6229338;23;19927;-90
2022/04/29 11:10:05;;;;;;;;;;;14.00;79.20;;;;;;6236459;23;19914;-90
2022/04/29 11:12:35;;;;;;;;;;;14.00;79.30;;;;;;6237703;23;19927;-89
2022/04/29 11:15:08;;;;;;;;;;;14.00;78.80;;;;;;6268032;23;19936;-90
2022/04/29 11:17:37;;;;;;;;;;;14.00;78.80;;;;;;6247462;23;19912;-90
2022/04/29 11:20:14;;;;;;;;;;;14.00;78.90;;;;;;6233582;23;19908;-89
2022/04/29 11:25:29;;;;;;;;;;;14.00;78.80;;;;;;6275535;22;19911;-89
2022/04/29 11:27:56;;;;;;;;;;;14.00;78.90;;;;;;6220106;23;19919;-91
2022/04/29 11:30:27;;;;;;;;;;;14.10;79.20;;;;;;6237467;23;19910;-89
2022/04/29 11:32:52;;;;;;;;;;;14.10;78.60;;;;;;6229785;23;19911;-89
2022/04/29 11:35:47;;;;;;;;;;;14.10;77.80;;;;;;6228151;23;19904;-92
2022/04/29 11:38:15;;;;;;;;;;;14.00;78.10;;;;;;6229013;23;19914;-91
2022/04/29 11:40:41;;;;;;;;;;;14.10;77.90;;;;;;6253036;23;19907;-90
2022/04/29 11:43:12;;;;;;;;;;;14.10;78.10;;;;;;6224711;23;19929;-92
2022/04/29 11:46:00;;;;;;;;;;;14.10;78.10;;;;;;6202946;23;20306;-91
2022/04/29 11:51:46;;;;;;;;;;;14.30;78.10;;;;;;6252358;23;19926;-89
2022/04/29 11:54:14;;;;;;;;;;;14.30;77.50;;;;;;6200885;23;19908;-90
2022/04/29 11:56:43;;;;;;;;;;;14.30;77.70;;;;;;6225711;23;19908;-90
2022/04/29 11:59:38;;;;;;;;;;;14.30;77.50;;;;;;6225902;23;19908;-90
2022/04/29 12:02:06;;;;;;;;;;;14.30;77.20;;;;;;6241545;23;19888;-90
2022/04/29 12:04:42;;;;;;;;;;;14.30;77.00;;;;;;6232853;23;19904;-90
2022/04/29 12:07:09;;;;;;;;;;;14.30;77.10;;;;;;6240236;23;19934;-91
2022/04/29 12:09:53;;;;;;;;;;;;;;;;;;;;;
2022/04/29 12:12:22;;;;;;;;;;;14.40;77.10;;;;;;6273838;23;19888;-89
2022/04/29 12:14:48;;;;;;;;;;;14.30;76.70;;;;;;6246556;23;19908;-90
2022/04/29 12:17:18;;;;;;;;;;;14.30;76.30;;;;;;6242316;23;19935;-90
2022/04/29 12:20:23;;;;;;;;;;;14.30;76.20;;;;;;6224638;23;20014;-89
2022/04/29 12:23:17;;;;;;;;;;;14.30;76.50;;;;;;6251362;23;19904;-90
2022/04/29 12:25:45;;;;;;;;;;;14.30;76.70;;;;;;6217842;23;20301;-90
2022/04/29 12:28:40;;;;;;;;;;;14.30;76.30;;;;;;6224765;23;19923;-90
2022/04/29 12:37:16;;;;;;;;;;;14.20;76.10;;;;;;6249565;23;19915;-89
2022/04/29 12:39:49;;;;;;;;;;;14.30;76.30;;;;;;6223379;23;19908;-91
2022/04/29 12:42:17;;;;;;;;;;;14.30;75.80;;;;;;6250018;23;19903;-91
2022/04/29 12:45:07;;;;;;;;;;;14.30;75.90;;;;;;6223181;23;19904;-90
2022/04/29 12:47:42;;;;;;;;;;;14.40;75.60;;;;;;6224222;23;20229;-92
2022/04/29 12:50:14;;;;;;;;;;;14.40;75.50;;;;;;6223300;23;19987;-90
2022/04/29 12:52:56;;;;;;;;;;;14.40;76.00;;;;;;6222750;23;19904;-90
2022/04/29 12:55:22;;;;;;;;;;;14.40;75.60;;;;;;6250557;23;19955;-89
2022/04/29 12:58:26;;;;;;;;;;;14.50;75.10;;;;;;6223348;23;19908;-91
2022/04/29 13:01:10;;;;;;;;;;;14.50;74.60;;;;;;6098283;23;19992;-91
2022/04/29 13:03:41;;;;;;;;;;;14.50;74.30;;;;;;6078699;23;19948;-88
2022/04/29 13:06:07;;;;;;;;;;;14.60;74.40;;;;;;6223689;23;19938;-90
2022/04/29 13:11:46;;;;;;;;;;;14.90;73.90;;;;;;6189194;23;19910;-92
2022/04/29 13:14:35;;;;;;;;;;;14.90;73.10;;;;;;6223772;23;19938;-90
2022/04/29 13:17:28;;;;;;;;;;;14.90;73.30;;;;;;6248979;23;19907;-91
2022/04/29 13:20:13;;;;;;;;;;;15.00;73.00;;;;;;6168396;23;19951;-89
2022/04/29 13:22:47;;;;;;;;;;;15.00;73.00;;;;;;6223918;23;19926;-91
2022/04/29 13:25:24;;;;;;;;;;;15.00;73.00;;;;;;6222523;23;19903;-92
2022/04/29 13:27:53;;;;;;;;;;;15.00;72.60;;;;;;6197489;23;19919;-90
2022/04/29 13:30:52;;;;;;;;;;;;;;;;;;;;;
2022/04/29 13:33:28;;;;;;;;;;;;;;;;;;;;;
2022/04/29 13:35:55;;;;;;;;;;;15.10;72.60;;;;;;6249812;23;19975;-93
2022/04/29 13:41:34;;;;;;;;;;;15.20;72.60;;;;;;6252321;23;19962;-93
2022/04/29 13:44:02;;;;;;;;;;;15.20;72.20;;;;;;6252648;23;19986;-93
2022/04/29 13:46:38;;;;;;;;;;;15.30;72.30;;;;;;6225557;23;19908;-91
2022/04/29 13:49:08;;;;;;;;;;;15.30;72.40;;;;;;6227008;23;19950;-91
2022/04/29 13:51:40;;;;;;;;;;;15.40;72.10;;;;;;6234257;23;19930;-90
2022/04/29 13:54:35;;;;;;;;;;;15.50;71.50;;;;;;6247940;23;19908;-92
2022/04/29 13:57:04;;;;;;;;;;;15.50;71.80;;;;;;6239195;23;19947;-92
2022/04/29 13:59:45;;;;;;;;;;;;;;;;;;;;;
2022/04/29 14:17:29;;;;;;;;;;;15.30;69.50;;;;;;6250975;23;19915;-90
2022/04/29 14:19:57;;;;;;;;;;;15.30;70.00;;;;;;6224205;23;19908;-89
2022/04/29 14:22:25;;;;;;;;;;;15.30;69.70;;;;;;6223555;23;19907;-89
2022/04/29 14:24:54;;;;;;;;;;;15.20;69.80;;;;;;6223954;23;19930;-90
2022/04/29 14:27:25;;;;;;;;;;;15.30;70.10;;;;;;6222910;23;19923;-91
2022/04/29 14:29:53;;;;;;;;;;;15.30;70.00;;;;;;6223966;23;19939;-91
2022/04/29 14:32:28;;;;;;;;;;;15.40;70.00;;;;;;6224177;23;19986;-90
2022/04/29 14:35:07;;;;;;;;;;;;;;;;;;;;;
2022/04/29 14:37:45;;;;;;;;;;;15.30;70.00;;;;;;6255511;23;19923;-91
2022/04/29 14:40:24;;;;;;;;;;;15.40;69.40;;;;;;6228968;23;19915;-91
2022/04/29 14:43:10;;;;;;;;;;;15.40;69.20;;;;;;6215034;23;19908;-92
2022/04/29 14:45:53;;;;;;;;;;;15.40;69.10;;;;;;6237452;23;20309;-92
2022/04/29 14:48:26;;;;;;;;;;;15.40;69.50;;;;;;6234114;23;19966;-92
2022/04/29 14:50:55;;;;;;;;;;;15.30;69.40;;;;;;6230163;23;19903;-90
2022/04/29 14:53:43;;;;;;;;;;;15.30;69.60;;;;;;6222491;23;19910;-92
2022/04/29 14:59:25;;;;;;;;;;;;;;;;;;;;;
2022/04/29 15:02:01;;;;;;;;;;;15.40;70.20;;;;;;6226186;23;19986;-88
2022/04/29 15:04:41;;;;;;;;;;;15.30;69.30;;;;;;6224360;23;20233;-88
2022/04/29 15:07:25;;;;;;;;;;;15.30;69.40;;;;;;6224716;23;19907;-88
2022/04/29 15:15:48;;;;;;;;;;;;;;;;;;;;;
2022/04/29 15:18:30;;;;;;;;;;;15.30;69.30;;;;;;6248837;23;20126;-91
2022/04/29 15:21:09;;;;;;;;;;;15.20;69.00;;;;;;6225728;23;19911;-90
2022/04/29 15:24:12;;;;;;;;;;;15.10;69.10;;;;;;6225598;23;19908;-91
2022/04/29 15:30:08;;;;;;;;;;;;;;;;;;;;;
2022/04/29 15:33:20;;;;;;;;;;;15.10;69.50;;;;;;6199027;23;20298;-90
2022/04/29 15:36:05;;;;;;;;;;;;;;;;;;;;;
2022/04/29 15:38:41;;;;;;;;;;;15.10;69.20;;;;;;6234536;23;19918;-90
2022/04/29 15:41:07;;;;;;;;;;;15.00;69.30;;;;;;6217613;23;19896;-90
2022/04/29 15:43:33;;;;;;;;;;;15.00;69.70;;;;;;6219897;23;19892;-90
2022/04/29 15:45:58;;;;;;;;;;;15.00;69.80;;;;;;6219988;23;19892;-89
2022/04/29 15:48:24;;;;;;;;;;;15.00;69.70;;;;;;6218614;23;19912;-90
2022/04/29 15:51:13;;;;;;;;;;;15.00;69.20;;;;;;6196085;23;19904;-92
2022/04/29 15:53:44;;;;;;;;;;;14.90;69.30;;;;;;6194599;23;19911;-90
2022/04/29 15:56:12;;;;;;;;;;;14.90;69.60;;;;;;6193976;23;19911;-91
2022/04/29 15:58:38;;;;;;;;;;;14.90;69.40;;;;;;6194183;23;20331;-92
2022/04/29 16:01:05;;;;;;;;;;;14.80;69.20;;;;;;6193813;23;19971;-90
2022/04/29 16:04:03;;;;;;;;;;;14.80;69.10;;;;;;6193829;23;19959;-89
2022/04/29 16:06:32;;;;;;;;;;;14.80;69.20;;;;;;6193329;23;19975;-90
2022/04/29 16:09:02;;;;;;;;;;;14.70;69.00;;;;;;6193425;23;19907;-91
2022/04/29 16:14:21;;;;;;;;;;;14.70;68.30;;;;;;6177366;23;20365;-90
2022/04/29 16:25:48;;;;;;;;;;;14.40;67.40;;;;;;6199846;23;19931;-90
2022/04/29 16:28:37;;;;;;;;;;;14.40;67.80;;;;;;6195922;23;19904;-90
2022/04/29 16:31:20;;;;;;;;;;;14.40;68.30;;;;;;6221351;23;19990;-93
2022/04/29 16:33:51;;;;;;;;;;;14.50;68.50;;;;;;6252062;23;19935;-91
2022/04/29 16:36:22;;;;;;;;;;;14.50;68.70;;;;;;6223745;23;19904;-91
2022/04/29 16:38:51;;;;;;;;;;;14.50;68.70;;;;;;6223894;23;19982;-91
2022/04/29 16:41:19;;;;;;;;;;;14.50;69.00;;;;;;6223736;23;19911;-92
2022/04/29 16:44:08;;;;;;;;;;;14.50;69.10;;;;;;6223707;23;19908;-90
2022/04/29 16:46:36;;;;;;;;;;;14.50;69.10;;;;;;6205133;23;20314;-91
2022/04/29 16:49:17;;;;;;;;;;;;;;;;;;;;;
2022/04/29 16:51:59;;;;;;;;;;;14.50;69.30;;;;;;6252285;23;19986;-91
2022/04/29 16:54:39;;;;;;;;;;;;;;;;;;;;;
2022/04/29 17:00:40;;;;;;;;;;;14.20;69.70;;;;;;6132159;23;19936;-93
2022/04/29 17:03:17;;;;;;;;;;;14.10;70.00;;;;;;6090625;23;19987;-93
2022/04/29 17:05:54;;;;;;;;;;;14.10;70.10;;;;;;6107872;23;19912;-91
2022/04/29 17:08:25;;;;;;;;;;;14.00;70.30;;;;;;6086104;23;19909;-91
2022/04/29 17:14:21;;;;;;;;;;;13.80;70.90;;;;;;6135926;23;19916;-91
2022/04/29 17:20:19;;;;;;;;;;;;;;;;;;;;;
2022/04/29 17:29:05;;;;;;;;;;;13.70;71.70;;;;;;6117338;23;19976;-90
2022/04/29 17:32:05;;;;;;;;;;;13.70;71.60;;;;;;6095481;23;19913;-91
2022/04/29 17:37:42;;;;;;;;;;;13.60;71.50;;;;;;6102584;23;19925;-91
2022/04/29 17:49:13;;;;;;;;;;;13.40;72.00;;;;;;6027680;23;19934;-94
2022/04/29 17:54:44;;;;;;;;;;;13.30;71.90;;;;;;6073306;23;19912;-92
2022/04/29 18:03:35;;;;;;;;;;;;;;;;;;;;;
2022/04/29 18:06:11;;;;;;;;;;;13.20;72.00;;;;;;6239924;23;19915;-90
2022/04/29 18:14:34;;;;;;;;;;;13.20;71.70;;;;;;6119899;23;19921;-89
2022/04/29 18:26:12;;;;;;;;;;;12.80;71.80;;;;;;6206310;23;19947;-89
2022/04/29 18:32:10;;;;;;;;;;;12.70;72.00;;;;;;6266299;22;19937;-90
2022/04/29 18:38:08;;;;;;;;;;;12.50;72.30;;;;;;6190159;23;20326;-90
2022/04/29 18:40:51;;;;;;;;;;;12.50;72.40;;;;;;6244836;23;19903;-88
2022/04/29 18:49:43;;;;;;;;;;;12.40;72.50;;;;;;6183063;23;19895;-88
2022/04/29 18:52:09;;;;;;;;;;;12.30;72.50;;;;;;6157481;23;19904;-88